createdAt,value
2022-12-09T00:01:22.533Z,25.71
2022-12-09T00:03:49.863Z,25.60
2022-12-09T00:06:18.609Z,25.50
2022-12-09T00:08:46.467Z,24.55
2022-12-09T00:11:13.491Z,24.89
2022-12-09T00:13:40.237Z,25.75
2022-12-09T00:16:08.057Z,23.66
2022-12-09T00:18:36.076Z,23.09
2022-12-09T00:21:22.643Z,22.95
2022-12-09T00:23:49.521Z,22.02
2022-12-09T00:26:16.492Z,22.20
2022-12-09T00:28:43.469Z,21.13
2022-12-09T00:31:17.532Z,20.33
2022-12-09T00:33:44.511Z,19.50
2022-12-09T00:36:13.059Z,20.06
2022-12-09T00:38:39.718Z,18.44
2022-12-09T00:41:06.405Z,19.15
2022-12-09T00:43:33.182Z,18.76
2022-12-09T00:45:59.950Z,18.75
2022-12-09T00:48:27.290Z,18.27
2022-12-09T00:50:53.950Z,18.42
2022-12-09T00:53:20.567Z,18.63
2022-12-09T00:55:47.354Z,18.29
2022-12-09T00:58:14.062Z,18.63
2022-12-09T01:00:40.979Z,17.91
2022-12-09T01:03:11.058Z,19.05
2022-12-09T01:05:37.919Z,18.50
2022-12-09T01:08:04.922Z,18.85
2022-12-09T01:10:33.688Z,19.07
2022-12-09T01:13:00.296Z,18.66
2022-12-09T01:15:26.899Z,18.02
2022-12-09T01:17:53.741Z,18.05
2022-12-09T01:20:20.368Z,17.36
2022-12-09T01:22:47.076Z,17.12
2022-12-09T01:25:13.702Z,16.96
2022-12-09T01:27:40.594Z,16.26
2022-12-09T01:30:08.772Z,15.33
2022-12-09T01:32:35.944Z,13.86
2022-12-09T01:35:02.690Z,13.92
2022-12-09T01:37:29.468Z,13.35
2022-12-09T01:39:56.364Z,13.22
2022-12-09T01:42:24.047Z,12.24
2022-12-09T01:45:35.445Z,11.50
2022-12-09T01:48:05.473Z,11.51
2022-12-09T01:50:32.153Z,10.79
2022-12-09T01:52:58.799Z,10.73
2022-12-09T01:55:25.455Z,10.96
2022-12-09T01:57:52.351Z,10.86
2022-12-09T02:00:19.379Z,10.97
2022-12-09T02:02:47.344Z,10.89
2022-12-09T02:05:14.145Z,10.52
2022-12-09T02:07:41.005Z,10.89
2022-12-09T02:10:11.016Z,11.10
2022-12-09T02:12:59.337Z,11.67
2022-12-09T02:15:30.913Z,11.92
2022-12-09T02:18:01.947Z,12.21
2022-12-09T02:20:39.913Z,12.17
2022-12-09T02:23:12.359Z,11.67
2022-12-09T02:25:41.206Z,12.61
2022-12-09T02:28:49.590Z,13.21
2022-12-09T02:31:28.409Z,13.01
2022-12-09T02:34:07.347Z,13.85
2022-12-09T02:36:37.756Z,13.85
2022-12-09T02:39:04.431Z,13.48
2022-12-09T02:41:31.105Z,13.71
2022-12-09T02:44:01.953Z,13.44
2022-12-09T02:46:28.792Z,13.07
2022-12-09T02:48:56.749Z,13.43
2022-12-09T02:51:24.574Z,13.04
2022-12-09T02:53:57.480Z,12.35
2022-12-09T02:56:24.315Z,13.04
2022-12-09T02:58:51.076Z,12.95
2022-12-09T03:01:47.374Z,12.86
2022-12-09T03:04:20.445Z,12.51
2022-12-09T03:06:50.941Z,12.41
2022-12-09T03:09:20.883Z,12.44
2022-12-09T03:11:47.657Z,12.46
2022-12-09T03:14:17.627Z,12.77
2022-12-09T03:16:47.224Z,13.22
2022-12-09T03:19:20.790Z,13.01
2022-12-09T03:21:48.322Z,13.11
2022-12-09T03:24:17.724Z,13.87
2022-12-09T03:26:44.562Z,14.33
2022-12-09T03:29:16.857Z,13.43
2022-12-09T03:31:43.647Z,14.07
2022-12-09T03:34:10.957Z,14.58
2022-12-09T03:36:39.064Z,13.77
2022-12-09T03:39:08.078Z,14.06
2022-12-09T03:41:34.897Z,13.85
2022-12-09T03:44:14.099Z,13.86
2022-12-09T03:46:41.070Z,13.93
2022-12-09T03:49:08.016Z,14.05
2022-12-09T03:51:40.498Z,14.55
2022-12-09T03:54:17.294Z,14.48
2022-12-09T03:56:46.222Z,14.50
2022-12-09T03:59:13.921Z,14.95
2022-12-09T04:01:41.286Z,14.27
2022-12-09T04:04:08.380Z,14.71
2022-12-09T04:06:35.628Z,14.39
2022-12-09T04:09:03.296Z,15.40
2022-12-09T04:11:31.557Z,15.28
2022-12-09T04:13:58.418Z,15.11
2022-12-09T04:16:25.250Z,14.80
2022-12-09T04:18:51.965Z,15.30
2022-12-09T04:21:18.627Z,15.15
2022-12-09T04:23:45.794Z,15.30
2022-12-09T04:26:17.803Z,15.52
2022-12-09T04:28:44.445Z,15.02
2022-12-09T04:31:12.157Z,14.85
2022-12-09T04:33:38.832Z,14.89
2022-12-09T04:36:10.309Z,14.94
2022-12-09T04:38:36.956Z,14.83
2022-12-09T04:41:03.941Z,14.60
2022-12-09T04:43:30.687Z,15.13
2022-12-09T04:46:01.564Z,14.48
2022-12-09T04:48:28.661Z,14.98
2022-12-09T04:50:55.606Z,14.88
2022-12-09T04:53:22.633Z,14.86
2022-12-09T04:55:49.644Z,14.73
2022-12-09T04:58:16.299Z,14.86
2022-12-09T05:00:43.228Z,14.64
2022-12-09T05:03:10.025Z,14.77
2022-12-09T05:05:40.093Z,14.95
2022-12-09T05:08:07.354Z,14.66
2022-12-09T05:10:34.588Z,14.28
2022-12-09T05:13:01.522Z,14.76
2022-12-09T05:15:28.872Z,14.56
2022-12-09T05:17:55.827Z,14.03
2022-12-09T05:20:23.127Z,14.50
2022-12-09T05:22:51.468Z,13.77
2022-12-09T05:25:18.162Z,14.28
2022-12-09T05:27:45.022Z,14.09
2022-12-09T05:30:12.294Z,13.81
2022-12-09T05:32:39.464Z,14.39
2022-12-09T05:35:06.399Z,14.33
2022-12-09T05:37:33.390Z,14.36
2022-12-09T05:40:00.512Z,14.29
2022-12-09T05:42:27.578Z,13.78
2022-12-09T05:44:54.717Z,13.65
2022-12-09T05:47:21.988Z,13.70
2022-12-09T05:49:49.750Z,14.09
2022-12-09T05:52:16.805Z,14.45
2022-12-09T05:54:43.844Z,14.36
2022-12-09T05:57:10.826Z,14.61
2022-12-09T05:59:37.684Z,14.64
2022-12-09T06:02:09.724Z,14.58
2022-12-09T06:04:37.021Z,14.74
2022-12-09T06:07:04.488Z,14.65
2022-12-09T06:09:31.572Z,14.33
2022-12-09T06:11:58.275Z,14.66
2022-12-09T06:14:25.229Z,14.76
2022-12-09T06:16:51.978Z,14.36
2022-12-09T06:19:19.583Z,14.74
2022-12-09T06:21:46.663Z,14.96
2022-12-09T06:24:13.654Z,15.16
2022-12-09T06:26:40.573Z,14.79
2022-12-09T06:29:07.628Z,14.31
2022-12-09T06:31:34.394Z,14.73
2022-12-09T06:34:01.923Z,15.87
2022-12-09T06:36:30.181Z,16.09
2022-12-09T06:38:57.737Z,14.55
2022-12-09T06:41:25.785Z,14.80
2022-12-09T06:43:53.188Z,14.84
2022-12-09T06:46:21.337Z,14.19
2022-12-09T06:48:48.281Z,14.14
2022-12-09T06:51:15.653Z,14.13
2022-12-09T06:53:42.502Z,14.35
2022-12-09T06:56:12.640Z,14.00
2022-12-09T06:58:40.605Z,14.08
2022-12-09T07:01:12.240Z,13.84
2022-12-09T07:03:43.879Z,14.11
2022-12-09T07:06:38.334Z,14.34
2022-12-09T07:09:09.170Z,14.04
2022-12-09T07:11:36.832Z,14.19
2022-12-09T07:14:03.804Z,14.68
2022-12-09T07:16:30.640Z,14.41
2022-12-09T07:18:58.292Z,15.67
2022-12-09T07:21:25.549Z,15.60
2022-12-09T07:23:52.604Z,15.86
2022-12-09T07:26:19.479Z,15.92
2022-12-09T07:28:46.614Z,15.89
2022-12-09T07:31:28.582Z,15.61
2022-12-09T07:33:56.791Z,15.63
2022-12-09T07:36:25.763Z,15.80
2022-12-09T07:38:56.488Z,16.64
2022-12-09T07:41:23.593Z,16.70
2022-12-09T07:43:50.435Z,16.27
2022-12-09T07:46:18.385Z,15.71
2022-12-09T07:48:45.279Z,15.78
2022-12-09T07:51:12.654Z,14.65
2022-12-09T07:53:39.400Z,15.21
2022-12-09T07:56:07.968Z,15.00
2022-12-09T07:58:34.965Z,18.83
2022-12-09T08:01:08.879Z,17.59
2022-12-09T08:03:35.860Z,15.84
2022-12-09T08:06:02.903Z,19.30
2022-12-09T08:08:31.206Z,17.31
2022-12-09T08:11:06.676Z,15.43
2022-12-09T08:13:34.093Z,17.78
2022-12-09T08:16:04.704Z,21.46
2022-12-09T08:18:32.642Z,24.69
2022-12-09T08:21:00.198Z,17.72
2022-12-09T08:23:27.066Z,18.38
2022-12-09T08:25:55.106Z,17.74
2022-12-09T08:28:23.167Z,16.96
2022-12-09T08:30:50.456Z,17.22
2022-12-09T08:33:17.481Z,15.20
2022-12-09T08:35:44.499Z,13.75
2022-12-09T08:38:11.428Z,14.18
2022-12-09T08:40:38.292Z,17.41
2022-12-09T08:43:06.295Z,16.84
2022-12-09T08:45:36.420Z,17.97
2022-12-09T08:48:03.220Z,17.27
2022-12-09T08:50:30.416Z,16.16
2022-12-09T08:52:57.443Z,15.47
2022-12-09T08:55:24.164Z,20.55
2022-12-09T08:57:50.828Z,18.03
2022-12-09T09:00:18.326Z,15.37
2022-12-09T09:02:45.064Z,13.72
2022-12-09T09:05:12.535Z,12.47
2022-12-09T09:07:39.669Z,15.45
2022-12-09T09:10:08.369Z,12.98
2022-12-09T09:12:42.038Z,12.57
2022-12-09T09:15:10.725Z,15.37
2022-12-09T09:17:37.664Z,22.80
2022-12-09T09:20:05.035Z,19.63
2022-12-09T09:22:34.583Z,15.05
2022-12-09T09:25:01.664Z,14.78
2022-12-09T09:27:28.429Z,17.75
2022-12-09T09:29:55.640Z,17.88
2022-12-09T09:32:22.475Z,22.05
2022-12-09T09:34:49.920Z,17.89
2022-12-09T09:37:17.054Z,11.82
2022-12-09T09:39:43.951Z,8.50
2022-12-09T09:42:17.130Z,7.95
2022-12-09T09:44:46.269Z,8.25
2022-12-09T09:47:18.847Z,8.13
2022-12-09T09:49:48.503Z,8.45
2022-12-09T09:52:21.848Z,8.74
2022-12-09T09:54:48.677Z,10.51
2022-12-09T09:57:19.476Z,10.12
2022-12-09T09:59:53.207Z,11.01
2022-12-09T10:02:22.863Z,9.76
2022-12-09T10:05:08.562Z,10.78
2022-12-09T10:07:42.397Z,15.29
2022-12-09T10:10:39.196Z,17.62
2022-12-09T10:13:29.589Z,20.67
2022-12-09T10:16:18.063Z,24.34
2022-12-09T10:18:56.135Z,22.83
2022-12-09T10:21:23.915Z,20.49
2022-12-09T10:23:50.815Z,17.74
2022-12-09T10:26:27.417Z,15.22
2022-12-09T10:28:59.388Z,13.38
2022-12-09T10:31:26.654Z,12.76
2022-12-09T10:33:53.666Z,13.54
2022-12-09T10:36:35.241Z,13.19
2022-12-09T10:39:03.066Z,12.12
2022-12-09T10:41:51.325Z,11.98
2022-12-09T10:44:23.205Z,11.88
2022-12-09T10:47:06.433Z,9.34
2022-12-09T10:49:34.189Z,12.10
2022-12-09T10:52:01.014Z,11.90
2022-12-09T10:54:39.373Z,8.73
2022-12-09T10:57:26.670Z,10.22
2022-12-09T10:59:59.339Z,8.90
2022-12-09T11:02:27.073Z,7.50
2022-12-09T11:04:54.089Z,7.15
2022-12-09T11:07:23.919Z,7.01
2022-12-09T11:09:56.757Z,6.95
2022-12-09T11:12:27.341Z,6.68
2022-12-09T11:14:56.214Z,6.56
2022-12-09T11:17:33.248Z,6.13
2022-12-09T11:20:06.585Z,5.65
2022-12-09T11:22:41.550Z,5.44
2022-12-09T11:25:11.828Z,5.54
2022-12-09T11:27:42.774Z,5.81
2022-12-09T11:30:20.201Z,5.56
2022-12-09T11:32:55.561Z,6.13
2022-12-09T11:35:45.884Z,6.33
2022-12-09T11:38:22.680Z,6.00
2022-12-09T11:41:11.285Z,5.78
2022-12-09T11:43:44.700Z,5.00
2022-12-09T11:46:14.220Z,4.06
2022-12-09T11:48:44.011Z,3.52
2022-12-09T11:51:40.843Z,4.17
2022-12-09T11:54:15.372Z,4.11
2022-12-09T11:56:41.977Z,3.87
2022-12-09T11:59:16.492Z,3.47
2022-12-09T12:01:49.152Z,3.55
2022-12-09T12:04:18.345Z,3.53
2022-12-09T12:06:52.323Z,3.30
2022-12-09T12:09:18.906Z,3.33
2022-12-09T12:12:07.296Z,3.49
2022-12-09T12:14:33.890Z,3.63
2022-12-09T12:17:18.799Z,3.72
2022-12-09T12:19:48.709Z,3.43
2022-12-09T12:22:47.989Z,3.54
2022-12-09T12:25:56.049Z,3.53
2022-12-09T12:28:37.749Z,3.79
2022-12-09T12:31:28.536Z,4.11
2022-12-09T12:34:23.505Z,4.51
2022-12-09T12:37:00.251Z,4.01
2022-12-09T12:39:38.349Z,10.20
2022-12-09T12:42:28.147Z,86.73
2022-12-09T12:45:14.102Z,123.55
2022-12-09T12:47:40.581Z,93.24
2022-12-09T12:50:25.821Z,32.12
2022-12-09T12:52:56.648Z,12.78
2022-12-09T12:55:50.955Z,13.79
2022-12-09T12:58:29.981Z,8.89
2022-12-09T13:01:21.801Z,6.62
2022-12-09T13:04:06.434Z,9.75
2022-12-09T13:06:38.510Z,7.66
2022-12-09T13:09:19.306Z,13.54
2022-12-09T13:12:05.837Z,13.80
2022-12-09T13:14:48.767Z,13.61
2022-12-09T13:17:18.375Z,11.71
2022-12-09T13:19:47.878Z,11.02
2022-12-09T13:22:30.722Z,8.42
2022-12-09T13:25:23.495Z,11.94
2022-12-09T13:28:02.235Z,14.11
2022-12-09T13:30:54.709Z,13.16
2022-12-09T13:33:48.734Z,8.67
2022-12-09T13:36:22.384Z,6.46
2022-12-09T13:38:49.040Z,6.76
2022-12-09T13:41:27.363Z,7.28
2022-12-09T13:43:55.064Z,7.27
2022-12-09T13:46:25.608Z,8.65
2022-12-09T13:48:53.035Z,10.99
2022-12-09T13:51:19.734Z,7.99
2022-12-09T13:53:59.335Z,9.40
2022-12-09T13:56:27.593Z,6.55
2022-12-09T13:59:07.592Z,8.47
2022-12-09T14:01:52.240Z,7.56
2022-12-09T14:04:25.869Z,6.01
2022-12-09T14:06:56.378Z,6.69
2022-12-09T14:09:39.661Z,5.43
2022-12-09T14:12:26.383Z,5.65
2022-12-09T14:15:05.442Z,3.96
2022-12-09T14:17:35.110Z,4.51
2022-12-09T14:20:01.619Z,4.82
2022-12-09T14:22:30.862Z,4.25
2022-12-09T14:24:58.291Z,3.64
2022-12-09T14:27:28.855Z,3.56
2022-12-09T14:29:57.439Z,5.00
2022-12-09T14:32:27.494Z,5.76
2022-12-09T14:35:09.299Z,4.75
2022-12-09T14:37:56.822Z,5.28
2022-12-09T14:40:42.187Z,5.07
2022-12-09T14:43:49.910Z,4.58
2022-12-09T14:46:23.053Z,4.22
2022-12-09T14:48:55.082Z,3.85
2022-12-09T14:51:30.559Z,3.65
2022-12-09T14:54:02.153Z,3.91
2022-12-09T14:56:29.406Z,3.64
2022-12-09T14:58:59.476Z,3.91
2022-12-09T15:01:26.229Z,3.99
2022-12-09T15:03:58.248Z,4.05
2022-12-09T15:06:25.266Z,3.58
2022-12-09T15:08:53.397Z,3.41
2022-12-09T15:11:22.046Z,3.26
2022-12-09T15:13:50.193Z,3.51
2022-12-09T15:16:18.895Z,3.83
2022-12-09T15:18:45.820Z,3.61
2022-12-09T15:21:27.672Z,4.13
2022-12-09T15:23:54.303Z,3.95
2022-12-09T15:26:27.278Z,3.77
2022-12-09T15:28:54.840Z,4.02
2022-12-09T15:31:26.315Z,4.14
2022-12-09T15:33:54.519Z,4.37
2022-12-09T15:36:28.080Z,4.17
2022-12-09T15:39:02.679Z,4.80
2022-12-09T15:41:34.547Z,4.77
2022-12-09T15:44:02.318Z,5.12
2022-12-09T15:46:29.159Z,6.31
2022-12-09T15:48:57.299Z,6.94
2022-12-09T15:51:24.134Z,5.63
2022-12-09T15:54:18.923Z,4.97
2022-12-09T15:56:53.552Z,4.68
2022-12-09T15:59:38.565Z,4.77
2022-12-09T16:02:06.294Z,4.45
2022-12-09T16:04:36.141Z,4.44
2022-12-09T16:07:09.660Z,4.67
2022-12-09T16:09:36.364Z,4.75
2022-12-09T16:12:02.993Z,5.01
2022-12-09T16:14:41.962Z,4.83
2022-12-09T16:17:21.744Z,5.75
2022-12-09T16:19:48.392Z,6.76
2022-12-09T16:22:14.955Z,16.46
2022-12-09T16:27:36.345Z,52.48
2022-12-09T16:30:17.562Z,28.88
2022-12-09T16:32:45.248Z,34.45
2022-12-09T16:35:11.825Z,38.38
2022-12-09T16:37:43.393Z,38.07
2022-12-09T16:40:29.855Z,39.03
2022-12-09T16:43:16.347Z,51.16
2022-12-09T16:45:44.231Z,66.67
2022-12-09T16:48:11.143Z,43.25
2022-12-09T16:50:51.899Z,37.32
2022-12-09T16:53:21.115Z,31.41
2022-12-09T16:55:52.748Z,28.31
2022-12-09T16:58:19.474Z,37.52
2022-12-09T17:00:46.145Z,54.10
2022-12-09T17:03:22.886Z,35.47
2022-12-09T17:05:49.541Z,37.56
2022-12-09T17:08:16.172Z,32.74
2022-12-09T17:10:42.902Z,33.12
2022-12-09T17:13:11.575Z,28.49
2022-12-09T17:15:40.506Z,21.92
2022-12-09T17:18:07.179Z,19.45
2022-12-09T17:20:33.844Z,17.72
2022-12-09T17:23:00.461Z,17.00
2022-12-09T17:25:27.112Z,15.79
2022-12-09T17:27:53.931Z,13.37
2022-12-09T17:30:20.527Z,12.98
2022-12-09T17:32:47.118Z,12.69
2022-12-09T17:35:14.310Z,12.93
2022-12-09T17:37:44.242Z,13.02
2022-12-09T17:40:11.113Z,12.24
2022-12-09T17:42:37.925Z,12.16
2022-12-09T17:45:05.238Z,13.18
2022-12-09T17:47:32.198Z,12.15
2022-12-09T17:49:58.951Z,12.87
2022-12-09T17:52:25.589Z,12.05
2022-12-09T17:54:52.249Z,12.09
2022-12-09T17:57:18.880Z,12.11
2022-12-09T17:59:45.547Z,12.72
2022-12-09T18:02:12.739Z,13.09
2022-12-09T18:04:39.436Z,12.57
2022-12-09T18:07:06.120Z,12.74
2022-12-09T18:09:32.773Z,12.82
2022-12-09T18:11:59.374Z,12.45
2022-12-09T18:14:26.306Z,12.53
2022-12-09T18:16:53.126Z,11.94
2022-12-09T18:19:20.132Z,11.63
2022-12-09T18:21:46.822Z,11.08
2022-12-09T18:24:13.493Z,11.74
2022-12-09T18:26:42.232Z,11.86
2022-12-09T18:29:09.840Z,12.39
2022-12-09T18:31:36.769Z,12.04
2022-12-09T18:34:03.407Z,12.03
2022-12-09T18:36:30.110Z,12.11
2022-12-09T18:38:56.775Z,12.05
2022-12-09T18:41:30.144Z,12.77
2022-12-09T18:43:58.026Z,12.86
2022-12-09T18:46:30.112Z,12.20
2022-12-09T18:48:56.716Z,12.92
2022-12-09T18:51:24.615Z,13.66
2022-12-09T18:53:51.273Z,13.68
2022-12-09T18:56:17.961Z,13.73
2022-12-09T18:59:05.294Z,13.77
2022-12-09T19:01:33.715Z,13.39
2022-12-09T19:04:01.644Z,13.96
2022-12-09T19:06:35.581Z,14.38
2022-12-09T19:09:09.763Z,15.11
2022-12-09T19:11:37.316Z,14.69
2022-12-09T19:14:04.608Z,15.30
2022-12-09T19:16:31.309Z,16.00
2022-12-09T19:18:58.033Z,16.09
2022-12-09T19:21:25.077Z,16.27
2022-12-09T19:23:51.730Z,16.06
2022-12-09T19:26:24.128Z,16.53
2022-12-09T19:28:52.312Z,16.60
2022-12-09T19:31:20.998Z,16.30
2022-12-09T19:33:47.808Z,16.88
2022-12-09T19:36:14.507Z,16.78
2022-12-09T19:38:41.176Z,17.28
2022-12-09T19:41:07.936Z,18.04
2022-12-09T19:43:34.543Z,18.95
2022-12-09T19:46:08.544Z,19.11
2022-12-09T19:48:36.428Z,19.84
2022-12-09T19:51:07.603Z,20.17
2022-12-09T19:53:34.409Z,21.08
2022-12-09T19:56:01.864Z,22.50
2022-12-09T19:58:29.343Z,24.50
2022-12-09T20:00:55.956Z,27.47
2022-12-09T20:03:22.704Z,25.85
2022-12-09T20:05:50.228Z,25.09
2022-12-09T20:08:16.894Z,23.04
2022-12-09T20:10:46.782Z,22.22
2022-12-09T20:13:14.134Z,21.12
2022-12-09T20:15:40.824Z,19.76
2022-12-09T20:18:07.685Z,17.78
2022-12-09T20:20:34.603Z,17.48
2022-12-09T20:23:01.221Z,16.96
2022-12-09T20:25:27.943Z,16.92
2022-12-09T20:27:54.583Z,16.65
2022-12-09T20:30:21.213Z,18.26
2022-12-09T20:32:47.813Z,18.71
2022-12-09T20:35:14.942Z,17.88
2022-12-09T20:37:41.640Z,18.15
2022-12-09T20:40:09.052Z,18.58
2022-12-09T20:42:35.910Z,18.58
2022-12-09T20:45:02.592Z,18.06
2022-12-09T20:47:29.348Z,17.35
2022-12-09T20:49:56.000Z,16.76
2022-12-09T20:52:22.635Z,15.48
2022-12-09T20:54:49.288Z,16.03
2022-12-09T20:57:15.931Z,15.35
2022-12-09T20:59:42.565Z,16.10
2022-12-09T21:02:15.542Z,15.58
2022-12-09T21:04:42.207Z,15.45
2022-12-09T21:07:08.818Z,16.30
2022-12-09T21:09:35.417Z,16.45
2022-12-09T21:12:02.132Z,16.66
2022-12-09T21:14:32.860Z,16.56
2022-12-09T21:16:59.817Z,17.42
2022-12-09T21:19:26.439Z,17.48
2022-12-09T21:21:53.173Z,17.49
2022-12-09T21:24:19.870Z,17.67
2022-12-09T21:26:46.508Z,17.15
2022-12-09T21:29:14.650Z,17.63
2022-12-09T21:31:41.565Z,17.43
2022-12-09T21:34:08.808Z,17.54
2022-12-09T21:36:38.703Z,17.06
2022-12-09T21:39:05.744Z,16.85
2022-12-09T21:41:33.260Z,16.16
2022-12-09T21:43:59.947Z,16.31
2022-12-09T21:46:28.372Z,16.47
2022-12-09T21:49:00.139Z,15.95
2022-12-09T21:51:30.258Z,15.56
2022-12-09T21:53:56.851Z,14.86
2022-12-09T21:56:24.550Z,14.72
2022-12-09T21:58:52.388Z,15.35
2022-12-09T22:01:26.822Z,14.79
2022-12-09T22:03:53.628Z,15.75
2022-12-09T22:06:20.290Z,15.34
2022-12-09T22:08:47.003Z,16.31
2022-12-09T22:11:15.991Z,16.43
2022-12-09T22:13:42.699Z,16.73
2022-12-09T22:16:18.037Z,15.97
2022-12-09T22:18:44.944Z,16.49
2022-12-09T22:21:24.781Z,17.14
2022-12-09T22:23:57.046Z,17.69
2022-12-09T22:26:23.871Z,17.55
2022-12-09T22:28:50.629Z,17.72
2022-12-09T22:31:22.501Z,17.25
2022-12-09T22:33:49.957Z,17.35
2022-12-09T22:36:16.719Z,17.04
2022-12-09T22:38:43.480Z,16.86
2022-12-09T22:41:14.946Z,17.47
2022-12-09T22:43:41.838Z,17.83
2022-12-09T22:46:20.027Z,20.11
2022-12-09T22:48:46.783Z,21.95
2022-12-09T22:51:15.269Z,24.03
2022-12-09T22:53:41.913Z,26.80
2022-12-09T22:56:08.734Z,26.22
2022-12-09T22:58:35.464Z,33.57
2022-12-09T23:01:02.068Z,28.42
2022-12-09T23:03:28.731Z,24.42
2022-12-09T23:05:55.417Z,25.15
2022-12-09T23:08:22.101Z,24.77
2022-12-09T23:10:48.756Z,25.11
2022-12-09T23:13:15.407Z,22.85
2022-12-09T23:15:42.066Z,23.78
2022-12-09T23:18:08.726Z,22.25
2022-12-09T23:20:35.329Z,22.34
2022-12-09T23:23:01.991Z,26.69
2022-12-09T23:25:28.576Z,26.90
2022-12-09T23:27:55.276Z,24.26
2022-12-09T23:30:21.924Z,20.57
2022-12-09T23:32:48.607Z,20.62
2022-12-09T23:35:15.831Z,20.74
2022-12-09T23:37:42.556Z,20.34
2022-12-09T23:40:10.005Z,20.30
2022-12-09T23:42:36.767Z,20.58
2022-12-09T23:45:03.433Z,23.06
2022-12-09T23:47:31.385Z,19.05
2022-12-09T23:49:57.972Z,20.92
2022-12-09T23:52:24.603Z,21.80
2022-12-09T23:54:51.282Z,22.98
2022-12-09T23:57:20.720Z,22.81
2022-12-09T23:59:47.380Z,23.85
